sensor_id;sensor_type;location;lat;lon;timestamp;P1;durP1;ratioP1;P2;durP2;ratioP2
12846;SDS011;6492;48.128;8.320;2023-06-05T00:02:39;4.97;;;3.40;;
12846;SDS011;6492;48.128;8.320;2023-06-05T00:06:43;5.07;;;3.30;;
12846;SDS011;6492;48.128;8.320;2023-06-05T00:10:45;4.27;;;3.17;;
12846;SDS011;6492;48.128;8.320;2023-06-05T00:14:47;3.40;;;3.10;;
12846;SDS011;6492;48.128;8.320;2023-06-05T00:18:49;3.60;;;3.00;;
12846;SDS011;6492;48.128;8.320;2023-06-05T00:22:52;4.00;;;3.33;;
12846;SDS011;6492;48.128;8.320;2023-06-05T00:26:55;3.77;;;3.10;;
12846;SDS011;6492;48.128;8.320;2023-06-05T00:30:56;5.17;;;3.50;;
12846;SDS011;6492;48.128;8.320;2023-06-05T00:34:58;3.70;;;3.30;;
12846;SDS011;6492;48.128;8.320;2023-06-05T00:39:02;3.90;;;3.10;;
12846;SDS011;6492;48.128;8.320;2023-06-05T00:43:07;3.33;;;2.97;;
12846;SDS011;6492;48.128;8.320;2023-06-05T00:47:09;4.10;;;3.17;;
12846;SDS011;6492;48.128;8.320;2023-06-05T00:51:11;4.50;;;3.37;;
12846;SDS011;6492;48.128;8.320;2023-06-05T00:55:17;3.37;;;2.93;;
12846;SDS011;6492;48.128;8.320;2023-06-05T00:59:19;5.63;;;3.17;;
12846;SDS011;6492;48.128;8.320;2023-06-05T01:03:21;4.53;;;3.37;;
12846;SDS011;6492;48.128;8.320;2023-06-05T01:07:24;4.40;;;3.10;;
12846;SDS011;6492;48.128;8.320;2023-06-05T01:11:35;4.73;;;3.00;;
12846;SDS011;6492;48.128;8.320;2023-06-05T01:15:41;3.90;;;3.00;;
12846;SDS011;6492;48.128;8.320;2023-06-05T01:19:43;3.20;;;2.67;;
12846;SDS011;6492;48.128;8.320;2023-06-05T01:23:47;5.90;;;2.90;;
12846;SDS011;6492;48.128;8.320;2023-06-05T01:27:52;5.97;;;3.00;;
12846;SDS011;6492;48.128;8.320;2023-06-05T01:32:00;3.67;;;2.67;;
12846;SDS011;6492;48.128;8.320;2023-06-05T01:36:06;3.80;;;3.37;;
12846;SDS011;6492;48.128;8.320;2023-06-05T01:40:10;3.63;;;3.10;;
12846;SDS011;6492;48.128;8.320;2023-06-05T01:44:15;5.53;;;3.03;;
12846;SDS011;6492;48.128;8.320;2023-06-05T01:48:18;4.33;;;3.43;;
12846;SDS011;6492;48.128;8.320;2023-06-05T01:52:20;3.83;;;2.97;;
12846;SDS011;6492;48.128;8.320;2023-06-05T01:56:23;5.67;;;3.40;;
12846;SDS011;6492;48.128;8.320;2023-06-05T02:04:46;4.20;;;3.13;;
12846;SDS011;6492;48.128;8.320;2023-06-05T02:08:48;3.73;;;3.10;;
12846;SDS011;6492;48.128;8.320;2023-06-05T02:12:51;7.40;;;3.33;;
12846;SDS011;6492;48.128;8.320;2023-06-05T02:16:53;6.23;;;3.30;;
12846;SDS011;6492;48.128;8.320;2023-06-05T02:20:56;4.83;;;3.20;;
12846;SDS011;6492;48.128;8.320;2023-06-05T02:24:58;3.73;;;2.90;;
12846;SDS011;6492;48.128;8.320;2023-06-05T02:29:01;5.03;;;3.40;;
12846;SDS011;6492;48.128;8.320;2023-06-05T02:33:03;4.03;;;3.20;;
12846;SDS011;6492;48.128;8.320;2023-06-05T02:37:04;5.37;;;3.63;;
12846;SDS011;6492;48.128;8.320;2023-06-05T02:41:06;4.20;;;3.53;;
12846;SDS011;6492;48.128;8.320;2023-06-05T02:45:10;4.80;;;3.40;;
12846;SDS011;6492;48.128;8.320;2023-06-05T02:49:12;6.03;;;3.50;;
12846;SDS011;6492;48.128;8.320;2023-06-05T02:53:14;5.10;;;3.40;;
12846;SDS011;6492;48.128;8.320;2023-06-05T02:57:16;4.93;;;3.73;;
12846;SDS011;6492;48.128;8.320;2023-06-05T03:01:19;4.20;;;3.63;;
12846;SDS011;6492;48.128;8.320;2023-06-05T03:05:22;5.47;;;4.00;;
12846;SDS011;6492;48.128;8.320;2023-06-05T03:09:24;6.20;;;4.00;;
12846;SDS011;6492;48.128;8.320;2023-06-05T03:13:26;5.70;;;3.93;;
12846;SDS011;6492;48.128;8.320;2023-06-05T03:17:29;6.47;;;4.23;;
12846;SDS011;6492;48.128;8.320;2023-06-05T03:21:31;4.80;;;4.07;;
12846;SDS011;6492;48.128;8.320;2023-06-05T03:25:33;8.07;;;4.13;;
12846;SDS011;6492;48.128;8.320;2023-06-05T03:29:35;5.67;;;4.10;;
12846;SDS011;6492;48.128;8.320;2023-06-05T03:33:38;6.43;;;4.43;;
12846;SDS011;6492;48.128;8.320;2023-06-05T03:37:40;5.40;;;3.80;;
12846;SDS011;6492;48.128;8.320;2023-06-05T03:41:42;6.10;;;4.10;;
12846;SDS011;6492;48.128;8.320;2023-06-05T03:45:43;6.23;;;4.10;;
12846;SDS011;6492;48.128;8.320;2023-06-05T03:49:48;5.53;;;3.73;;
12846;SDS011;6492;48.128;8.320;2023-06-05T03:53:50;9.17;;;4.00;;
12846;SDS011;6492;48.128;8.320;2023-06-05T03:57:55;5.60;;;3.90;;
12846;SDS011;6492;48.128;8.320;2023-06-05T04:01:56;4.67;;;3.70;;
12846;SDS011;6492;48.128;8.320;2023-06-05T04:06:00;5.70;;;4.30;;
12846;SDS011;6492;48.128;8.320;2023-06-05T04:10:02;4.70;;;3.67;;
12846;SDS011;6492;48.128;8.320;2023-06-05T04:14:04;4.00;;;3.40;;
12846;SDS011;6492;48.128;8.320;2023-06-05T04:18:21;4.60;;;3.53;;
12846;SDS011;6492;48.128;8.320;2023-06-05T04:22:24;7.47;;;3.93;;
12846;SDS011;6492;48.128;8.320;2023-06-05T04:26:26;4.00;;;3.37;;
12846;SDS011;6492;48.128;8.320;2023-06-05T04:30:28;4.30;;;3.47;;
12846;SDS011;6492;48.128;8.320;2023-06-05T04:34:30;4.07;;;3.33;;
12846;SDS011;6492;48.128;8.320;2023-06-05T04:38:33;4.17;;;3.20;;
12846;SDS011;6492;48.128;8.320;2023-06-05T04:42:37;5.27;;;3.70;;
12846;SDS011;6492;48.128;8.320;2023-06-05T04:46:39;5.07;;;3.37;;
12846;SDS011;6492;48.128;8.320;2023-06-05T04:50:43;5.10;;;3.50;;
12846;SDS011;6492;48.128;8.320;2023-06-05T04:54:46;4.97;;;3.63;;
12846;SDS011;6492;48.128;8.320;2023-06-05T04:58:48;4.83;;;3.43;;
12846;SDS011;6492;48.128;8.320;2023-06-05T05:02:52;5.00;;;3.33;;
12846;SDS011;6492;48.128;8.320;2023-06-05T05:06:54;3.83;;;3.33;;
12846;SDS011;6492;48.128;8.320;2023-06-05T05:11:02;5.10;;;3.90;;
12846;SDS011;6492;48.128;8.320;2023-06-05T05:15:04;3.87;;;3.40;;
12846;SDS011;6492;48.128;8.320;2023-06-05T05:19:07;4.77;;;3.47;;
12846;SDS011;6492;48.128;8.320;2023-06-05T05:23:09;4.07;;;3.50;;
12846;SDS011;6492;48.128;8.320;2023-06-05T05:27:12;4.40;;;3.43;;
12846;SDS011;6492;48.128;8.320;2023-06-05T05:31:14;4.60;;;3.80;;
12846;SDS011;6492;48.128;8.320;2023-06-05T05:35:16;5.00;;;3.50;;
12846;SDS011;6492;48.128;8.320;2023-06-05T05:39:17;5.10;;;3.80;;
12846;SDS011;6492;48.128;8.320;2023-06-05T05:43:21;4.33;;;3.83;;
12846;SDS011;6492;48.128;8.320;2023-06-05T05:47:23;6.63;;;3.80;;
12846;SDS011;6492;48.128;8.320;2023-06-05T05:51:27;6.10;;;3.70;;
12846;SDS011;6492;48.128;8.320;2023-06-05T05:55:28;6.30;;;3.63;;
12846;SDS011;6492;48.128;8.320;2023-06-05T05:59:32;6.40;;;3.90;;
12846;SDS011;6492;48.128;8.320;2023-06-05T06:03:33;4.30;;;3.90;;
12846;SDS011;6492;48.128;8.320;2023-06-05T06:07:37;5.03;;;4.00;;
12846;SDS011;6492;48.128;8.320;2023-06-05T06:11:41;5.03;;;4.13;;
12846;SDS011;6492;48.128;8.320;2023-06-05T06:15:45;5.13;;;3.73;;
12846;SDS011;6492;48.128;8.320;2023-06-05T06:19:47;4.90;;;4.00;;
12846;SDS011;6492;48.128;8.320;2023-06-05T06:23:49;6.22;;;3.80;;
12846;SDS011;6492;48.128;8.320;2023-06-05T06:28:01;4.97;;;3.70;;
12846;SDS011;6492;48.128;8.320;2023-06-05T06:41:01;5.35;;;4.03;;
12846;SDS011;6492;48.128;8.320;2023-06-05T06:49:40;4.03;;;3.67;;
12846;SDS011;6492;48.128;8.320;2023-06-05T06:53:42;5.25;;;3.97;;
12846;SDS011;6492;48.128;8.320;2023-06-05T06:57:55;5.20;;;4.03;;
12846;SDS011;6492;48.128;8.320;2023-06-05T07:06:26;4.35;;;3.85;;
12846;SDS011;6492;48.128;8.320;2023-06-05T07:10:28;4.30;;;3.72;;
12846;SDS011;6492;48.128;8.320;2023-06-05T07:14:30;5.32;;;3.38;;
12846;SDS011;6492;48.128;8.320;2023-06-05T07:18:33;3.90;;;3.60;;
12846;SDS011;6492;48.128;8.320;2023-06-05T07:22:49;4.72;;;3.50;;
12846;SDS011;6492;48.128;8.320;2023-06-05T07:26:51;6.35;;;3.60;;
12846;SDS011;6492;48.128;8.320;2023-06-05T07:30:55;4.28;;;3.80;;
12846;SDS011;6492;48.128;8.320;2023-06-05T07:34:57;4.05;;;3.75;;
12846;SDS011;6492;48.128;8.320;2023-06-05T07:39:00;4.00;;;3.60;;
12846;SDS011;6492;48.128;8.320;2023-06-05T07:43:02;4.53;;;4.13;;
12846;SDS011;6492;48.128;8.320;2023-06-05T07:51:54;5.30;;;4.68;;
12846;SDS011;6492;48.128;8.320;2023-06-05T07:56:00;4.30;;;3.78;;
12846;SDS011;6492;48.128;8.320;2023-06-05T08:00:06;3.88;;;3.58;;
12846;SDS011;6492;48.128;8.320;2023-06-05T08:04:17;4.47;;;4.07;;
12846;SDS011;6492;48.128;8.320;2023-06-05T08:08:19;3.97;;;3.67;;
12846;SDS011;6492;48.128;8.320;2023-06-05T08:12:22;4.30;;;3.80;;
12846;SDS011;6492;48.128;8.320;2023-06-05T08:16:24;4.00;;;3.70;;
12846;SDS011;6492;48.128;8.320;2023-06-05T08:20:25;4.70;;;4.10;;
12846;SDS011;6492;48.128;8.320;2023-06-05T08:24:27;4.95;;;4.50;;
12846;SDS011;6492;48.128;8.320;2023-06-05T08:28:31;5.20;;;4.43;;
12846;SDS011;6492;48.128;8.320;2023-06-05T08:32:32;5.55;;;5.05;;
12846;SDS011;6492;48.128;8.320;2023-06-05T08:36:34;4.63;;;3.83;;
12846;SDS011;6492;48.128;8.320;2023-06-05T08:40:43;4.53;;;4.10;;
12846;SDS011;6492;48.128;8.320;2023-06-05T08:44:52;4.60;;;4.10;;
12846;SDS011;6492;48.128;8.320;2023-06-05T08:48:53;4.88;;;4.10;;
12846;SDS011;6492;48.128;8.320;2023-06-05T08:57:36;5.57;;;4.65;;
12846;SDS011;6492;48.128;8.320;2023-06-05T09:01:41;4.90;;;4.40;;
12846;SDS011;6492;48.128;8.320;2023-06-05T09:05:43;5.47;;;4.97;;
12846;SDS011;6492;48.128;8.320;2023-06-05T09:09:53;7.38;;;5.00;;
12846;SDS011;6492;48.128;8.320;2023-06-05T09:13:56;6.13;;;5.53;;
12846;SDS011;6492;48.128;8.320;2023-06-05T09:18:04;5.78;;;5.13;;
12846;SDS011;6492;48.128;8.320;2023-06-05T09:22:08;6.95;;;5.00;;
12846;SDS011;6492;48.128;8.320;2023-06-05T09:26:13;5.68;;;5.18;;
12846;SDS011;6492;48.128;8.320;2023-06-05T09:30:16;5.50;;;5.00;;
12846;SDS011;6492;48.128;8.320;2023-06-05T09:34:23;5.88;;;5.03;;
12846;SDS011;6492;48.128;8.320;2023-06-05T09:38:27;5.25;;;4.38;;
12846;SDS011;6492;48.128;8.320;2023-06-05T09:42:33;4.88;;;4.38;;
12846;SDS011;6492;48.128;8.320;2023-06-05T09:46:37;7.18;;;4.97;;
12846;SDS011;6492;48.128;8.320;2023-06-05T09:50:54;5.05;;;4.53;;
12846;SDS011;6492;48.128;8.320;2023-06-05T09:55:08;5.32;;;4.57;;
12846;SDS011;6492;48.128;8.320;2023-06-05T09:59:12;5.15;;;4.72;;
12846;SDS011;6492;48.128;8.320;2023-06-05T10:03:17;5.85;;;4.90;;
12846;SDS011;6492;48.128;8.320;2023-06-05T10:07:33;6.57;;;5.30;;
12846;SDS011;6492;48.128;8.320;2023-06-05T10:11:38;5.53;;;5.03;;
12846;SDS011;6492;48.128;8.320;2023-06-05T10:15:42;5.50;;;5.00;;
12846;SDS011;6492;48.128;8.320;2023-06-05T10:19:44;7.88;;;5.72;;
12846;SDS011;6492;48.128;8.320;2023-06-05T10:23:48;7.40;;;4.70;;
12846;SDS011;6492;48.128;8.320;2023-06-05T10:27:54;6.47;;;5.07;;
12846;SDS011;6492;48.128;8.320;2023-06-05T10:32:07;6.00;;;5.43;;
12846;SDS011;6492;48.128;8.320;2023-06-05T10:36:15;5.85;;;5.30;;
12846;SDS011;6492;48.128;8.320;2023-06-05T10:40:53;5.82;;;4.65;;
12846;SDS011;6492;48.128;8.320;2023-06-05T10:44:56;6.15;;;5.30;;
12846;SDS011;6492;48.128;8.320;2023-06-05T10:49:14;5.90;;;5.35;;
12846;SDS011;6492;48.128;8.320;2023-06-05T10:58:03;6.53;;;4.93;;
12846;SDS011;6492;48.128;8.320;2023-06-05T11:02:25;5.45;;;4.95;;
12846;SDS011;6492;48.128;8.320;2023-06-05T11:06:29;5.88;;;5.38;;
12846;SDS011;6492;48.128;8.320;2023-06-05T11:10:34;5.85;;;5.30;;
12846;SDS011;6492;48.128;8.320;2023-06-05T11:18:52;5.78;;;5.18;;
12846;SDS011;6492;48.128;8.320;2023-06-05T11:23:06;6.10;;;5.35;;
12846;SDS011;6492;48.128;8.320;2023-06-05T11:27:40;5.63;;;5.03;;
12846;SDS011;6492;48.128;8.320;2023-06-05T11:31:47;6.18;;;5.13;;
12846;SDS011;6492;48.128;8.320;2023-06-05T11:35:49;6.10;;;5.53;;
12846;SDS011;6492;48.128;8.320;2023-06-05T11:39:52;6.13;;;5.55;;
12846;SDS011;6492;48.128;8.320;2023-06-05T11:43:55;5.80;;;5.30;;
12846;SDS011;6492;48.128;8.320;2023-06-05T11:48:04;6.43;;;5.40;;
12846;SDS011;6492;48.128;8.320;2023-06-05T11:52:16;5.95;;;5.28;;
12846;SDS011;6492;48.128;8.320;2023-06-05T11:56:33;5.70;;;5.15;;
12846;SDS011;6492;48.128;8.320;2023-06-05T12:00:34;7.82;;;4.93;;
12846;SDS011;6492;48.128;8.320;2023-06-05T12:04:40;6.05;;;5.45;;
12846;SDS011;6492;48.128;8.320;2023-06-05T12:08:42;5.57;;;5.03;;
12846;SDS011;6492;48.128;8.320;2023-06-05T12:12:50;5.35;;;4.82;;
12846;SDS011;6492;48.128;8.320;2023-06-05T12:16:56;6.30;;;5.55;;
12846;SDS011;6492;48.128;8.320;2023-06-05T12:20:59;6.47;;;5.40;;
12846;SDS011;6492;48.128;8.320;2023-06-05T12:25:14;5.57;;;5.05;;
12846;SDS011;6492;48.128;8.320;2023-06-05T12:29:17;6.95;;;5.28;;
12846;SDS011;6492;48.128;8.320;2023-06-05T12:33:18;6.47;;;5.88;;
12846;SDS011;6492;48.128;8.320;2023-06-05T12:41:50;6.70;;;5.63;;
12846;SDS011;6492;48.128;8.320;2023-06-05T12:50:28;5.50;;;5.00;;
12846;SDS011;6492;48.128;8.320;2023-06-05T12:54:31;6.63;;;6.03;;
12846;SDS011;6492;48.128;8.320;2023-06-05T12:58:32;6.43;;;5.10;;
12846;SDS011;6492;48.128;8.320;2023-06-05T13:11:40;6.18;;;5.43;;
12846;SDS011;6492;48.128;8.320;2023-06-05T13:20:07;6.10;;;5.50;;
12846;SDS011;6492;48.128;8.320;2023-06-05T13:24:10;5.85;;;5.35;;
12846;SDS011;6492;48.128;8.320;2023-06-05T13:28:30;5.88;;;5.38;;
12846;SDS011;6492;48.128;8.320;2023-06-05T13:32:32;7.15;;;5.25;;
12846;SDS011;6492;48.128;8.320;2023-06-05T13:36:47;5.60;;;5.07;;
12846;SDS011;6492;48.128;8.320;2023-06-05T13:40:49;5.55;;;5.15;;
12846;SDS011;6492;48.128;8.320;2023-06-05T13:44:53;5.63;;;5.13;;
12846;SDS011;6492;48.128;8.320;2023-06-05T13:53:28;6.00;;;5.50;;
12846;SDS011;6492;48.128;8.320;2023-06-05T13:57:34;6.82;;;6.22;;
12846;SDS011;6492;48.128;8.320;2023-06-05T14:06:16;6.00;;;5.40;;
12846;SDS011;6492;48.128;8.320;2023-06-05T14:10:25;5.90;;;5.40;;
12846;SDS011;6492;48.128;8.320;2023-06-05T14:14:27;6.68;;;5.68;;
12846;SDS011;6492;48.128;8.320;2023-06-05T14:18:45;5.80;;;5.20;;
12846;SDS011;6492;48.128;8.320;2023-06-05T14:22:47;5.97;;;5.30;;
12846;SDS011;6492;48.128;8.320;2023-06-05T14:27:00;6.15;;;5.32;;
12846;SDS011;6492;48.128;8.320;2023-06-05T14:31:02;6.45;;;5.82;;
12846;SDS011;6492;48.128;8.320;2023-06-05T14:35:05;6.15;;;5.65;;
12846;SDS011;6492;48.128;8.320;2023-06-05T14:39:07;6.03;;;5.47;;
12846;SDS011;6492;48.128;8.320;2023-06-05T14:43:09;6.03;;;5.53;;
12846;SDS011;6492;48.128;8.320;2023-06-05T14:51:42;5.65;;;5.15;;
12846;SDS011;6492;48.128;8.320;2023-06-05T14:55:44;6.00;;;5.40;;
12846;SDS011;6492;48.128;8.320;2023-06-05T14:59:46;7.50;;;6.53;;
12846;SDS011;6492;48.128;8.320;2023-06-05T15:03:48;5.05;;;4.65;;
12846;SDS011;6492;48.128;8.320;2023-06-05T15:07:51;6.78;;;5.32;;
12846;SDS011;6492;48.128;8.320;2023-06-05T15:11:53;5.60;;;5.20;;
12846;SDS011;6492;48.128;8.320;2023-06-05T15:15:55;5.72;;;5.32;;
12846;SDS011;6492;48.128;8.320;2023-06-05T15:19:59;5.55;;;5.00;;
12846;SDS011;6492;48.128;8.320;2023-06-05T15:24:02;6.38;;;5.47;;
12846;SDS011;6492;48.128;8.320;2023-06-05T15:36:21;6.10;;;5.50;;
12846;SDS011;6492;48.128;8.320;2023-06-05T15:44:48;5.60;;;5.10;;
12846;SDS011;6492;48.128;8.320;2023-06-05T15:48:53;5.80;;;5.30;;
12846;SDS011;6492;48.128;8.320;2023-06-05T15:52:55;5.68;;;5.18;;
12846;SDS011;6492;48.128;8.320;2023-06-05T15:57:02;7.10;;;5.38;;
12846;SDS011;6492;48.128;8.320;2023-06-05T16:01:05;6.20;;;5.60;;
12846;SDS011;6492;48.128;8.320;2023-06-05T16:05:08;5.93;;;5.43;;
12846;SDS011;6492;48.128;8.320;2023-06-05T16:09:10;6.05;;;5.45;;
12846;SDS011;6492;48.128;8.320;2023-06-05T16:13:13;6.15;;;5.65;;
12846;SDS011;6492;48.128;8.320;2023-06-05T16:17:16;5.70;;;5.20;;
12846;SDS011;6492;48.128;8.320;2023-06-05T16:21:18;5.55;;;5.05;;
12846;SDS011;6492;48.128;8.320;2023-06-05T16:25:20;7.90;;;5.30;;
12846;SDS011;6492;48.128;8.320;2023-06-05T16:29:32;6.65;;;5.22;;
12846;SDS011;6492;48.128;8.320;2023-06-05T16:33:33;6.30;;;5.20;;
12846;SDS011;6492;48.128;8.320;2023-06-05T16:37:35;7.50;;;5.50;;
12846;SDS011;6492;48.128;8.320;2023-06-05T16:41:37;5.68;;;5.18;;
12846;SDS011;6492;48.128;8.320;2023-06-05T16:45:41;5.50;;;5.00;;
12846;SDS011;6492;48.128;8.320;2023-06-05T16:49:43;5.88;;;5.35;;
12846;SDS011;6492;48.128;8.320;2023-06-05T16:53:45;5.50;;;4.75;;
12846;SDS011;6492;48.128;8.320;2023-06-05T16:57:47;5.03;;;4.53;;
12846;SDS011;6492;48.128;8.320;2023-06-05T17:01:59;5.50;;;4.93;;
12846;SDS011;6492;48.128;8.320;2023-06-05T17:10:30;5.65;;;4.82;;
12846;SDS011;6492;48.128;8.320;2023-06-05T17:23:22;4.70;;;4.30;;
12846;SDS011;6492;48.128;8.320;2023-06-05T17:27:24;5.82;;;4.70;;
12846;SDS011;6492;48.128;8.320;2023-06-05T17:35:56;4.93;;;4.53;;
12846;SDS011;6492;48.128;8.320;2023-06-05T17:39:58;5.30;;;4.80;;
12846;SDS011;6492;48.128;8.320;2023-06-05T17:44:00;4.97;;;4.53;;
12846;SDS011;6492;48.128;8.320;2023-06-05T17:48:03;5.35;;;4.85;;
12846;SDS011;6492;48.128;8.320;2023-06-05T17:52:07;4.78;;;4.38;;
12846;SDS011;6492;48.128;8.320;2023-06-05T17:56:09;5.38;;;4.88;;
12846;SDS011;6492;48.128;8.320;2023-06-05T18:00:18;5.57;;;4.45;;
12846;SDS011;6492;48.128;8.320;2023-06-05T18:04:20;4.85;;;4.45;;
12846;SDS011;6492;48.128;8.320;2023-06-05T18:08:23;4.82;;;4.43;;
12846;SDS011;6492;48.128;8.320;2023-06-05T18:12:27;12.40;;;9.18;;
12846;SDS011;6492;48.128;8.320;2023-06-05T18:16:28;5.43;;;4.93;;
12846;SDS011;6492;48.128;8.320;2023-06-05T18:20:31;5.97;;;5.00;;
12846;SDS011;6492;48.128;8.320;2023-06-05T18:24:34;5.30;;;4.80;;
12846;SDS011;6492;48.128;8.320;2023-06-05T18:28:49;4.95;;;4.55;;
12846;SDS011;6492;48.128;8.320;2023-06-05T18:32:51;4.45;;;4.05;;
12846;SDS011;6492;48.128;8.320;2023-06-05T18:54:56;4.97;;;4.40;;
12846;SDS011;6492;48.128;8.320;2023-06-05T18:59:01;4.93;;;4.25;;
12846;SDS011;6492;48.128;8.320;2023-06-05T19:07:30;5.18;;;4.07;;
12846;SDS011;6492;48.128;8.320;2023-06-05T19:11:32;4.25;;;3.85;;
12846;SDS011;6492;48.128;8.320;2023-06-05T19:24:48;4.30;;;3.90;;
12846;SDS011;6492;48.128;8.320;2023-06-05T19:28:50;6.25;;;4.03;;
12846;SDS011;6492;48.128;8.320;2023-06-05T19:32:55;4.65;;;4.18;;
12846;SDS011;6492;48.128;8.320;2023-06-05T19:36:56;5.72;;;3.80;;
12846;SDS011;6492;48.128;8.320;2023-06-05T19:40:58;6.03;;;3.95;;
12846;SDS011;6492;48.128;8.320;2023-06-05T19:45:01;5.30;;;4.32;;
12846;SDS011;6492;48.128;8.320;2023-06-05T19:49:04;7.87;;;3.73;;
12846;SDS011;6492;48.128;8.320;2023-06-05T19:53:08;5.38;;;3.90;;
12846;SDS011;6492;48.128;8.320;2023-06-05T19:57:19;3.97;;;3.58;;
12846;SDS011;6492;48.128;8.320;2023-06-05T20:01:21;4.70;;;4.00;;
12846;SDS011;6492;48.128;8.320;2023-06-05T20:05:26;4.63;;;3.67;;
12846;SDS011;6492;48.128;8.320;2023-06-05T20:09:36;5.73;;;4.10;;
12846;SDS011;6492;48.128;8.320;2023-06-05T20:13:52;4.37;;;3.97;;
12846;SDS011;6492;48.128;8.320;2023-06-05T20:17:57;5.00;;;4.43;;
12846;SDS011;6492;48.128;8.320;2023-06-05T20:22:00;5.03;;;3.90;;
12846;SDS011;6492;48.128;8.320;2023-06-05T20:30:35;4.17;;;3.47;;
12846;SDS011;6492;48.128;8.320;2023-06-05T20:34:37;4.17;;;3.63;;
12846;SDS011;6492;48.128;8.320;2023-06-05T20:43:16;6.13;;;3.90;;
12846;SDS011;6492;48.128;8.320;2023-06-05T20:47:20;3.87;;;3.30;;
12846;SDS011;6492;48.128;8.320;2023-06-05T20:51:22;4.37;;;3.47;;
12846;SDS011;6492;48.128;8.320;2023-06-05T20:59:50;4.10;;;3.70;;
12846;SDS011;6492;48.128;8.320;2023-06-05T21:03:52;4.27;;;3.60;;
12846;SDS011;6492;48.128;8.320;2023-06-05T21:07:54;4.37;;;3.40;;
12846;SDS011;6492;48.128;8.320;2023-06-05T21:16:22;5.83;;;3.57;;
12846;SDS011;6492;48.128;8.320;2023-06-05T21:20:24;4.10;;;3.60;;
12846;SDS011;6492;48.128;8.320;2023-06-05T21:24:26;4.20;;;3.30;;
12846;SDS011;6492;48.128;8.320;2023-06-05T21:28:29;4.03;;;3.40;;
12846;SDS011;6492;48.128;8.320;2023-06-05T21:32:30;3.83;;;3.20;;
12846;SDS011;6492;48.128;8.320;2023-06-05T21:36:34;4.40;;;3.50;;
12846;SDS011;6492;48.128;8.320;2023-06-05T21:40:36;5.33;;;3.87;;
12846;SDS011;6492;48.128;8.320;2023-06-05T21:44:40;3.53;;;3.10;;
12846;SDS011;6492;48.128;8.320;2023-06-05T21:48:42;4.17;;;3.50;;
12846;SDS011;6492;48.128;8.320;2023-06-05T21:52:44;4.23;;;3.47;;
12846;SDS011;6492;48.128;8.320;2023-06-05T21:56:46;3.60;;;3.30;;
12846;SDS011;6492;48.128;8.320;2023-06-05T22:00:49;3.77;;;3.47;;
12846;SDS011;6492;48.128;8.320;2023-06-05T22:04:51;6.03;;;3.50;;
12846;SDS011;6492;48.128;8.320;2023-06-05T22:08:52;4.33;;;3.60;;
12846;SDS011;6492;48.128;8.320;2023-06-05T22:17:08;3.87;;;3.37;;
12846;SDS011;6492;48.128;8.320;2023-06-05T22:21:12;5.80;;;3.70;;
12846;SDS011;6492;48.128;8.320;2023-06-05T22:25:16;5.40;;;3.37;;
12846;SDS011;6492;48.128;8.320;2023-06-05T22:29:18;4.63;;;3.07;;
12846;SDS011;6492;48.128;8.320;2023-06-05T22:33:21;4.90;;;3.57;;
12846;SDS011;6492;48.128;8.320;2023-06-05T22:37:22;3.67;;;3.30;;
12846;SDS011;6492;48.128;8.320;2023-06-05T22:41:25;4.13;;;3.23;;
12846;SDS011;6492;48.128;8.320;2023-06-05T22:45:28;5.83;;;3.37;;
12846;SDS011;6492;48.128;8.320;2023-06-05T22:49:31;4.27;;;3.40;;
12846;SDS011;6492;48.128;8.320;2023-06-05T22:53:33;3.43;;;3.13;;
12846;SDS011;6492;48.128;8.320;2023-06-05T22:57:35;2.87;;;2.60;;
12846;SDS011;6492;48.128;8.320;2023-06-05T23:05:59;4.53;;;3.27;;
12846;SDS011;6492;48.128;8.320;2023-06-05T23:10:01;5.27;;;3.43;;
12846;SDS011;6492;48.128;8.320;2023-06-05T23:14:03;6.77;;;3.70;;
12846;SDS011;6492;48.128;8.320;2023-06-05T23:18:05;3.43;;;2.93;;
12846;SDS011;6492;48.128;8.320;2023-06-05T23:22:08;4.90;;;3.27;;
12846;SDS011;6492;48.128;8.320;2023-06-05T23:26:10;3.60;;;3.30;;
12846;SDS011;6492;48.128;8.320;2023-06-05T23:30:11;6.07;;;3.60;;
12846;SDS011;6492;48.128;8.320;2023-06-05T23:34:13;5.63;;;3.50;;
12846;SDS011;6492;48.128;8.320;2023-06-05T23:38:16;4.47;;;3.60;;
12846;SDS011;6492;48.128;8.320;2023-06-05T23:42:18;4.10;;;3.67;;
12846;SDS011;6492;48.128;8.320;2023-06-05T23:46:22;4.40;;;3.37;;
12846;SDS011;6492;48.128;8.320;2023-06-05T23:50:24;5.30;;;3.53;;
12846;SDS011;6492;48.128;8.320;2023-06-05T23:54:27;4.87;;;3.60;;
12846;SDS011;6492;48.128;8.320;2023-06-05T23:58:29;4.57;;;3.97;;
